Time;durP1;ratioP1;P1;durP2;ratioP2;P2;SDS_P1;SDS_P2;PMS_P1;PMS_P2;Temp;Humidity;BMP_temperature;BMP_pressure;BME280_temperature;BME280_humidity;BME280_pressure;Samples;Min_cycle;Max_cycle;Signal;HPM_P1;HPM_P2
2023/12/12 00:01:00;;;;;;;5.88;1.75;;;;;;;;;;5038342;28;20688;-69
2023/12/12 00:03:26;;;;;;;4.50;1.30;;;;;;;;;;5039762;28;20181;-69
2023/12/12 00:05:51;;;;;;;2.78;1.48;;;;;;;;;;5039274;28;20144;-69
2023/12/12 00:08:17;;;;;;;3.38;1.75;;;;;;;;;;5038679;28;20048;-69
2023/12/12 00:10:42;;;;;;;2.08;1.50;;;;;;;;;;5039590;28;21055;-69
2023/12/12 00:13:07;;;;;;;2.85;1.92;;;;;;;;;;5038121;28;20033;-69
2023/12/12 00:15:33;;;;;;;5.80;2.20;;;;;;;;;;5039195;28;20103;-69
2023/12/12 00:17:58;;;;;;;1.90;1.58;;;;;;;;;;5039380;28;20052;-69
2023/12/12 00:20:24;;;;;;;2.28;1.52;;;;;;;;;;5039882;28;20051;-69
2023/12/12 00:22:49;;;;;;;2.22;1.85;;;;;;;;;;5038818;28;20068;-68
2023/12/12 00:25:14;;;;;;;1.85;1.45;;;;;;;;;;5039625;28;20461;-68
2023/12/12 00:27:40;;;;;;;3.47;1.73;;;;;;;;;;5039058;28;20114;-68
2023/12/12 00:30:06;;;;;;;3.28;1.35;;;;;;;;;;5037881;28;20048;-69
2023/12/12 00:32:32;;;;;;;1.42;1.33;;;;;;;;;;5038874;28;20037;-69
2023/12/12 00:34:58;;;;;;;3.38;1.23;;;;;;;;;;5039441;28;20482;-69
2023/12/12 00:37:24;;;;;;;3.83;1.40;;;;;;;;;;5038683;28;20866;-69
2023/12/12 00:39:49;;;;;;;1.75;1.13;;;;;;;;;;5039398;28;20442;-69
2023/12/12 00:42:14;;;;;;;0.68;0.68;;;;;;;;;;5038921;28;20048;-68
2023/12/12 00:44:40;;;;;;;1.10;1.10;;;;;;;;;;5037449;28;20052;-69
2023/12/12 00:47:05;;;;;;;2.13;0.90;;;;;;;;;;5038715;28;20095;-69
2023/12/12 00:49:31;;;;;;;0.98;0.90;;;;;;;;;;5038617;28;20511;-69
2023/12/12 00:51:56;;;;;;;3.33;0.90;;;;;;;;;;5038863;28;20788;-68
2023/12/12 00:54:22;;;;;;;3.17;0.88;;;;;;;;;;5038104;28;20043;-67
2023/12/12 00:56:47;;;;;;;2.58;0.82;;;;;;;;;;5038652;28;20064;-68
2023/12/12 00:59:14;;;;;;;0.60;0.60;;;;;;;;;;5038182;28;20041;-69
2023/12/12 01:01:39;;;;;;;2.22;0.70;;;;;;;;;;5038685;28;20059;-68
2023/12/12 01:04:05;;;;;;;0.93;0.70;;;;;;;;;;5038432;28;20045;-68
2023/12/12 01:06:31;;;;;;;1.67;0.80;;;;;;;;;;5038418;28;20979;-68
2023/12/12 01:08:56;;;;;;;2.13;0.95;;;;;;;;;;5038731;28;20041;-68
2023/12/12 01:11:22;;;;;;;0.85;0.70;;;;;;;;;;5038197;28;20488;-69
2023/12/12 01:13:48;;;;;;;0.85;0.73;;;;;;;;;;5038267;28;20045;-68
2023/12/12 01:16:13;;;;;;;2.28;0.68;;;;;;;;;;5038471;28;20041;-68
2023/12/12 01:18:39;;;;;;;0.73;0.70;;;;;;;;;;5037698;28;20499;-68
2023/12/12 01:21:05;;;;;;;2.92;0.70;;;;;;;;;;5038450;28;20056;-68
2023/12/12 01:23:52;;;;;;;1.55;0.80;;;;;;;;;;5037375;28;20148;-68
2023/12/12 01:26:19;;;;;;;4.68;0.82;;;;;;;;;;5036728;28;20136;-68
2023/12/12 01:28:45;;;;;;;0.85;0.70;;;;;;;;;;5036728;28;20037;-68
2023/12/12 01:31:10;;;;;;;0.82;0.77;;;;;;;;;;5035920;28;20759;-67
2023/12/12 01:33:36;;;;;;;0.75;0.68;;;;;;;;;;5036780;28;20053;-68
2023/12/12 01:36:01;;;;;;;1.67;0.60;;;;;;;;;;5036593;28;20049;-68
2023/12/12 01:38:26;;;;;;;2.25;0.90;;;;;;;;;;5037833;28;20065;-68
2023/12/12 01:40:53;;;;;;;1.05;0.73;;;;;;;;;;5037722;28;20803;-68
2023/12/12 01:43:25;;;;;;;0.80;0.60;;;;;;;;;;5036098;28;20059;-69
2023/12/12 01:45:54;;;;;;;2.50;0.77;;;;;;;;;;5038020;28;20052;-67
2023/12/12 01:48:20;;;;;;;1.45;0.88;;;;;;;;;;5037273;28;20135;-69
2023/12/12 01:50:46;;;;;;;2.17;0.98;;;;;;;;;;5037839;28;20163;-68
2023/12/12 01:53:13;;;;;;;1.50;1.10;;;;;;;;;;5037449;28;20045;-68
2023/12/12 01:55:38;;;;;;;5.03;0.77;;;;;;;;;;5038328;28;20037;-68
2023/12/12 01:58:04;;;;;;;1.50;0.80;;;;;;;;;;5037898;28;20110;-68
2023/12/12 02:00:30;;;;;;;1.05;0.70;;;;;;;;;;5036751;28;20053;-68
2023/12/12 02:02:56;;;;;;;1.45;0.82;;;;;;;;;;5038031;28;20080;-67
2023/12/12 02:05:22;;;;;;;1.15;0.70;;;;;;;;;;5037658;28;20622;-67
2023/12/12 02:07:50;;;;;;;1.90;1.00;;;;;;;;;;5038109;28;20047;-67
2023/12/12 02:10:15;;;;;;;0.50;0.50;;;;;;;;;;5036517;28;20055;-68
2023/12/12 02:12:41;;;;;;;0.60;0.50;;;;;;;;;;5037123;28;20033;-67
2023/12/12 02:15:07;;;;;;;1.75;0.75;;;;;;;;;;5037163;28;20040;-67
2023/12/12 02:17:32;;;;;;;1.40;1.30;;;;;;;;;;5037722;28;20037;-67
2023/12/12 02:19:58;;;;;;;1.40;1.25;;;;;;;;;;5037469;28;20726;-67
2023/12/12 02:22:23;;;;;;;1.73;1.40;;;;;;;;;;5036674;28;20080;-67
2023/12/12 02:24:49;;;;;;;1.60;1.20;;;;;;;;;;5036177;28;20052;-67
2023/12/12 02:27:14;;;;;;;1.55;0.95;;;;;;;;;;5036965;28;20049;-67
2023/12/12 02:29:40;;;;;;;1.38;1.13;;;;;;;;;;5037780;28;20499;-68
2023/12/12 02:32:05;;;;;;;1.80;1.27;;;;;;;;;;5035952;28;20143;-67
2023/12/12 02:34:31;;;;;;;3.05;1.60;;;;;;;;;;5036972;28;20063;-67
2023/12/12 02:36:56;;;;;;;5.25;1.70;;;;;;;;;;5036514;28;20066;-67
2023/12/12 02:39:22;;;;;;;1.75;1.48;;;;;;;;;;5036506;28;20037;-68
2023/12/12 02:41:47;;;;;;;4.47;2.03;;;;;;;;;;5037139;28;20742;-67
2023/12/12 02:44:12;;;;;;;2.20;1.70;;;;;;;;;;5035768;28;20041;-68
2023/12/12 02:46:39;;;;;;;2.35;1.90;;;;;;;;;;5036689;28;20403;-67
2023/12/12 02:49:05;;;;;;;1.75;1.48;;;;;;;;;;5036890;28;20041;-67
2023/12/12 02:51:31;;;;;;;1.48;1.40;;;;;;;;;;5037262;28;20037;-68
2023/12/12 02:53:56;;;;;;;2.97;1.80;;;;;;;;;;5035949;28;20051;-68
2023/12/12 02:56:22;;;;;;;2.28;1.60;;;;;;;;;;5037391;28;20052;-68
2023/12/12 02:58:47;;;;;;;1.55;1.42;;;;;;;;;;5036889;28;20053;-68
2023/12/12 03:01:13;;;;;;;3.53;1.67;;;;;;;;;;5018906;28;20049;-68
2023/12/12 03:03:39;;;;;;;1.63;1.52;;;;;;;;;;5036833;28;20791;-68
2023/12/12 03:06:06;;;;;;;1.85;1.65;;;;;;;;;;5036619;28;20082;-67
2023/12/12 03:08:31;;;;;;;1.67;1.58;;;;;;;;;;5036826;28;20056;-68
2023/12/12 03:10:56;;;;;;;2.67;1.98;;;;;;;;;;5036600;28;20527;-68
2023/12/12 03:13:22;;;;;;;1.73;1.58;;;;;;;;;;5036799;28;20415;-68
2023/12/12 03:15:47;;;;;;;4.20;1.48;;;;;;;;;;5036196;28;20059;-68
2023/12/12 03:18:13;;;;;;;1.50;1.40;;;;;;;;;;5037803;28;20621;-68
2023/12/12 03:20:38;;;;;;;2.75;1.63;;;;;;;;;;5040545;28;20372;-67
2023/12/12 03:23:04;;;;;;;1.38;1.30;;;;;;;;;;5038654;28;20120;-69
2023/12/12 03:25:29;;;;;;;2.67;1.20;;;;;;;;;;5040926;28;20045;-68
2023/12/12 03:27:54;;;;;;;1.40;1.30;;;;;;;;;;5040083;28;20048;-68
2023/12/12 03:30:20;;;;;;;1.40;1.30;;;;;;;;;;5038968;28;20048;-69
2023/12/12 03:32:45;;;;;;;1.52;1.35;;;;;;;;;;5040165;28;20041;-68
2023/12/12 03:35:11;;;;;;;2.08;1.55;;;;;;;;;;5039968;28;20127;-69
2023/12/12 03:37:36;;;;;;;1.50;1.15;;;;;;;;;;5039982;28;20041;-68
2023/12/12 03:40:03;;;;;;;1.80;1.70;;;;;;;;;;5040158;28;20633;-69
2023/12/12 03:42:28;;;;;;;3.33;1.80;;;;;;;;;;5040340;28;20041;-68
2023/12/12 03:44:54;;;;;;;1.65;1.55;;;;;;;;;;5039548;28;20052;-69
2023/12/12 03:47:19;;;;;;;2.58;1.75;;;;;;;;;;5040165;28;20499;-68
2023/12/12 03:49:45;;;;;;;1.92;1.40;;;;;;;;;;5039840;28;20056;-68
2023/12/12 03:52:10;;;;;;;3.33;1.35;;;;;;;;;;5039959;28;20051;-68
2023/12/12 03:54:35;;;;;;;1.70;1.58;;;;;;;;;;5039586;28;20044;-68
2023/12/12 03:57:01;;;;;;;1.70;1.60;;;;;;;;;;5038661;28;20132;-69
2023/12/12 03:59:26;;;;;;;1.55;1.45;;;;;;;;;;5039146;28;20045;-68
2023/12/12 04:01:52;;;;;;;2.15;1.80;;;;;;;;;;5039772;28;20049;-68
2023/12/12 04:04:17;;;;;;;2.10;1.90;;;;;;;;;;5039470;28;20616;-67
2023/12/12 04:06:45;;;;;;;2.30;2.10;;;;;;;;;;5039523;28;20049;-68
2023/12/12 04:09:10;;;;;;;3.35;2.25;;;;;;;;;;5039938;28;20060;-68
2023/12/12 04:11:35;;;;;;;2.53;2.08;;;;;;;;;;5039438;28;20491;-68
2023/12/12 04:14:01;;;;;;;3.63;2.38;;;;;;;;;;5039287;28;20053;-68
2023/12/12 04:16:26;;;;;;;3.38;2.65;;;;;;;;;;5035542;28;20065;-69
2023/12/12 04:18:52;;;;;;;2.95;2.38;;;;;;;;;;5039310;28;20094;-68
2023/12/12 04:21:17;;;;;;;2.35;2.15;;;;;;;;;;5037629;28;20049;-68
2023/12/12 04:23:42;;;;;;;3.15;1.95;;;;;;;;;;5039415;28;20526;-68
2023/12/12 04:26:09;;;;;;;2.40;2.20;;;;;;;;;;5039406;28;20215;-68
2023/12/12 04:28:34;;;;;;;2.30;2.10;;;;;;;;;;5039199;28;20124;-68
2023/12/12 04:31:00;;;;;;;2.83;2.50;;;;;;;;;;5038545;28;20517;-68
2023/12/12 04:33:26;;;;;;;3.00;2.45;;;;;;;;;;5038812;28;20044;-68
2023/12/12 04:35:51;;;;;;;3.80;2.70;;;;;;;;;;5039738;28;20052;-68
2023/12/12 04:38:16;;;;;;;3.08;2.40;;;;;;;;;;5039254;28;20041;-69
2023/12/12 04:40:42;;;;;;;3.42;2.55;;;;;;;;;;5039047;28;20041;-69
2023/12/12 04:43:08;;;;;;;4.78;3.00;;;;;;;;;;5038443;28;20064;-69
2023/12/12 04:45:33;;;;;;;3.35;2.22;;;;;;;;;;5038430;28;20131;-69
2023/12/12 04:47:59;;;;;;;5.32;2.45;;;;;;;;;;5039563;28;20045;-69
2023/12/12 04:50:24;;;;;;;3.42;2.65;;;;;;;;;;5038822;28;20518;-68
2023/12/12 04:52:50;;;;;;;3.20;2.50;;;;;;;;;;5038794;28;20060;-69
2023/12/12 04:55:16;;;;;;;3.40;2.63;;;;;;;;;;5038033;28;20037;-69
2023/12/12 04:57:43;;;;;;;2.70;2.45;;;;;;;;;;5039483;28;20904;-69
2023/12/12 05:00:13;;;;;;;4.65;3.28;;;;;;;;;;5038783;28;20726;-69
2023/12/12 05:02:42;;;;;;;3.88;2.80;;;;;;;;;;5038354;28;20573;-68
2023/12/12 05:05:08;;;;;;;7.35;2.85;;;;;;;;;;5037973;28;20036;-69
2023/12/12 05:07:34;;;;;;;3.28;2.50;;;;;;;;;;5038817;28;20561;-69
2023/12/12 05:10:00;;;;;;;3.88;3.08;;;;;;;;;;5038998;28;20052;-69
2023/12/12 05:12:25;;;;;;;4.63;3.15;;;;;;;;;;5037905;28;20095;-69
2023/12/12 05:14:51;;;;;;;5.38;3.30;;;;;;;;;;5038217;28;20555;-69
2023/12/12 05:17:16;;;;;;;4.35;3.20;;;;;;;;;;5037060;28;20041;-69
2023/12/12 05:19:42;;;;;;;4.60;3.80;;;;;;;;;;5038364;28;20045;-69
2023/12/12 05:22:07;;;;;;;2.75;2.55;;;;;;;;;;5036921;28;20108;-69
2023/12/12 05:24:33;;;;;;;4.47;3.17;;;;;;;;;;5037423;28;20906;-69
2023/12/12 05:26:58;;;;;;;6.13;3.13;;;;;;;;;;5037856;28;20537;-69
2023/12/12 05:29:24;;;;;;;4.90;2.92;;;;;;;;;;5036564;28;20160;-69
2023/12/12 05:31:49;;;;;;;3.55;2.75;;;;;;;;;;5037745;28;20060;-69
2023/12/12 05:34:14;;;;;;;4.00;2.78;;;;;;;;;;5034209;28;20446;-69
2023/12/12 05:36:40;;;;;;;4.25;2.67;;;;;;;;;;5036479;28;20456;-69
2023/12/12 05:39:05;;;;;;;3.83;2.85;;;;;;;;;;5036072;28;20048;-69
2023/12/12 05:41:31;;;;;;;6.45;3.17;;;;;;;;;;5036976;28;20374;-69
2023/12/12 05:43:57;;;;;;;8.63;3.40;;;;;;;;;;5033754;28;20132;-69
2023/12/12 05:46:23;;;;;;;7.90;3.35;;;;;;;;;;5032714;28;20052;-69
2023/12/12 05:48:49;;;;;;;3.95;3.10;;;;;;;;;;5035385;28;20187;-70
2023/12/12 05:51:16;;;;;;;4.75;3.53;;;;;;;;;;5034646;28;20141;-70
2023/12/12 05:53:45;;;;;;;5.60;3.20;;;;;;;;;;5036866;28;20059;-70
2023/12/12 05:56:13;;;;;;;4.10;3.55;;;;;;;;;;5050595;28;20036;-69
2023/12/12 05:58:39;;;;;;;5.85;4.22;;;;;;;;;;5056956;28;20112;-70
2023/12/12 06:01:04;;;;;;;6.03;4.03;;;;;;;;;;5056914;28;20143;-69
2023/12/12 06:03:31;;;;;;;5.53;4.18;;;;;;;;;;5057039;28;20036;-69
2023/12/12 06:05:57;;;;;;;6.85;4.47;;;;;;;;;;5058782;28;20096;-69
2023/12/12 06:08:22;;;;;;;7.60;4.10;;;;;;;;;;5018997;28;20045;-69
2023/12/12 06:10:47;;;;;;;5.75;3.55;;;;;;;;;;5048265;28;20094;-69
2023/12/12 06:13:13;;;;;;;4.85;3.65;;;;;;;;;;5047977;28;20040;-69
2023/12/12 06:15:38;;;;;;;4.07;3.50;;;;;;;;;;5045866;28;20041;-69
2023/12/12 06:18:04;;;;;;;5.25;3.80;;;;;;;;;;5046159;28;20490;-68
2023/12/12 06:20:32;;;;;;;8.93;4.20;;;;;;;;;;5046437;28;20048;-69
2023/12/12 06:22:57;;;;;;;5.25;3.75;;;;;;;;;;5038981;28;20060;-69
2023/12/12 06:25:23;;;;;;;5.18;3.75;;;;;;;;;;5038120;28;20037;-69
2023/12/12 06:27:49;;;;;;;7.10;4.40;;;;;;;;;;5040495;28;20041;-69
2023/12/12 06:30:15;;;;;;;4.25;3.60;;;;;;;;;;5040049;28;20041;-69
2023/12/12 06:32:41;;;;;;;7.07;4.60;;;;;;;;;;5039575;28;20059;-69
2023/12/12 06:35:06;;;;;;;7.78;4.03;;;;;;;;;;5038582;28;20495;-69
2023/12/12 06:37:32;;;;;;;5.15;3.92;;;;;;;;;;5040139;28;20115;-68
2023/12/12 06:39:58;;;;;;;9.52;4.13;;;;;;;;;;5039950;28;20045;-69
2023/12/12 06:42:24;;;;;;;7.00;4.88;;;;;;;;;;5039703;28;20118;-69
2023/12/12 06:44:49;;;;;;;7.00;4.68;;;;;;;;;;5038445;28;20403;-69
2023/12/12 06:47:15;;;;;;;8.80;4.72;;;;;;;;;;5038906;28;20079;-69
2023/12/12 06:49:40;;;;;;;7.05;4.78;;;;;;;;;;5038557;28;20045;-69
2023/12/12 06:52:06;;;;;;;7.72;4.90;;;;;;;;;;5037600;28;20060;-69
2023/12/12 06:54:31;;;;;;;8.40;5.28;;;;;;;;;;5039859;28;20155;-70
2023/12/12 06:56:57;;;;;;;7.38;4.75;;;;;;;;;;5040224;28;20910;-69
2023/12/12 06:59:22;;;;;;;7.70;4.93;;;;;;;;;;5041779;28;20045;-69
2023/12/12 07:01:47;;;;;;;10.48;5.70;;;;;;;;;;5039360;28;20079;-69
2023/12/12 07:04:13;;;;;;;6.85;5.00;;;;;;;;;;5039405;28;20041;-68
2023/12/12 07:06:38;;;;;;;8.80;5.47;;;;;;;;;;5039864;28;20056;-68
2023/12/12 07:09:04;;;;;;;9.93;5.85;;;;;;;;;;5042554;28;20045;-69
2023/12/12 07:11:30;;;;;;;9.90;5.43;;;;;;;;;;5042596;28;20080;-69
2023/12/12 07:13:55;;;;;;;8.57;5.60;;;;;;;;;;5040553;28;20507;-69
2023/12/12 07:16:21;;;;;;;13.52;5.72;;;;;;;;;;5039669;28;20153;-69
2023/12/12 07:18:46;;;;;;;8.40;5.43;;;;;;;;;;5039930;28;20037;-67
2023/12/12 07:21:14;;;;;;;11.00;5.28;;;;;;;;;;5040764;28;20048;-67
2023/12/12 07:23:40;;;;;;;9.40;6.00;;;;;;;;;;5040185;28;20502;-69
2023/12/12 07:26:05;;;;;;;8.98;4.50;;;;;;;;;;5040813;28;20052;-69
2023/12/12 07:28:31;;;;;;;7.97;4.50;;;;;;;;;;5038929;28;20048;-69
2023/12/12 07:30:56;;;;;;;9.20;5.53;;;;;;;;;;5038628;28;20599;-69
2023/12/12 07:33:21;;;;;;;7.38;4.90;;;;;;;;;;5041539;28;20044;-69
2023/12/12 07:35:47;;;;;;;7.75;5.03;;;;;;;;;;5042995;28;20052;-69
2023/12/12 07:38:12;;;;;;;5.80;3.53;;;;;;;;;;5042722;28;20056;-69
2023/12/12 07:40:38;;;;;;;5.38;3.55;;;;;;;;;;5039766;28;20083;-70
2023/12/12 07:43:03;;;;;;;7.45;4.10;;;;;;;;;;5039898;28;20059;-69
2023/12/12 07:45:28;;;;;;;2.88;2.55;;;;;;;;;;5048595;28;20048;-69
2023/12/12 07:47:54;;;;;;;7.10;4.45;;;;;;;;;;5042041;28;20771;-70
2023/12/12 07:50:19;;;;;;;6.88;4.28;;;;;;;;;;5020604;28;20041;-69
2023/12/12 07:52:45;;;;;;;6.22;4.82;;;;;;;;;;5020469;28;20056;-69
2023/12/12 07:55:10;;;;;;;6.35;4.10;;;;;;;;;;5020734;28;20049;-69
2023/12/12 07:57:36;;;;;;;6.07;3.70;;;;;;;;;;5020975;28;20037;-69
2023/12/12 08:00:06;;;;;;;8.18;4.05;;;;;;;;;;5020782;28;20053;-70
2023/12/12 08:02:36;;;;;;;5.45;3.60;;;;;;;;;;5018992;28;20033;-69
2023/12/12 08:05:03;;;;;;;5.50;4.38;;;;;;;;;;5019239;28;20060;-69
2023/12/12 08:07:28;;;;;;;11.90;4.97;;;;;;;;;;5020455;28;20056;-69
2023/12/12 08:09:54;;;;;;;6.22;4.05;;;;;;;;;;5021853;28;20049;-69
2023/12/12 08:12:21;;;;;;;9.38;4.57;;;;;;;;;;5021179;28;20049;-69
2023/12/12 08:14:47;;;;;;;5.63;4.10;;;;;;;;;;5026137;28;20158;-69
2023/12/12 08:17:12;;;;;;;7.15;4.30;;;;;;;;;;5020141;28;20045;-69
2023/12/12 08:19:38;;;;;;;7.88;4.40;;;;;;;;;;5020584;28;20463;-69
2023/12/12 08:22:03;;;;;;;6.38;4.10;;;;;;;;;;5020714;28;20068;-69
2023/12/12 08:24:29;;;;;;;3.50;2.45;;;;;;;;;;5019597;28;20441;-69
2023/12/12 08:26:54;;;;;;;8.68;3.97;;;;;;;;;;5020322;28;20053;-69
2023/12/12 08:29:19;;;;;;;5.60;3.75;;;;;;;;;;5024404;28;20092;-69
2023/12/12 08:31:45;;;;;;;4.82;3.67;;;;;;;;;;5020100;28;20080;-69
2023/12/12 08:34:11;;;;;;;7.85;4.70;;;;;;;;;;5019697;28;20049;-69
2023/12/12 08:36:36;;;;;;;4.57;2.45;;;;;;;;;;5020343;28;20064;-69
2023/12/12 08:39:01;;;;;;;9.48;4.60;;;;;;;;;;5023995;28;20084;-69
2023/12/12 08:41:30;;;;;;;5.28;3.72;;;;;;;;;;5020364;28;20048;-69
2023/12/12 08:43:56;;;;;;;5.38;4.03;;;;;;;;;;5023469;28;20049;-69
2023/12/12 08:46:26;;;;;;;6.93;4.38;;;;;;;;;;5020213;28;20107;-69
2023/12/12 08:48:56;;;;;;;7.88;4.40;;;;;;;;;;5024002;28;20057;-69
2023/12/12 08:51:23;;;;;;;6.57;4.18;;;;;;;;;;5022041;28;20060;-67
2023/12/12 08:53:49;;;;;;;9.10;5.13;;;;;;;;;;5025737;28;20084;-70
2023/12/12 08:56:16;;;;;;;8.18;5.13;;;;;;;;;;5021974;28;20045;-68
2023/12/12 08:58:44;;;;;;;8.43;5.32;;;;;;;;;;5037235;28;20099;-69
2023/12/12 09:01:10;;;;;;;8.55;5.22;;;;;;;;;;5022228;28;20088;-69
2023/12/12 09:03:35;;;;;;;7.80;5.22;;;;;;;;;;5019107;28;20175;-70
2023/12/12 09:06:01;;;;;;;9.20;5.40;;;;;;;;;;5020517;28;20129;-70
2023/12/12 09:08:27;;;;;;;7.05;4.50;;;;;;;;;;5020143;28;20037;-69
2023/12/12 09:10:53;;;;;;;7.18;5.07;;;;;;;;;;5019346;28;20793;-70
2023/12/12 09:13:18;;;;;;;7.55;5.05;;;;;;;;;;5019934;28;20112;-70
2023/12/12 09:15:43;;;;;;;8.85;4.70;;;;;;;;;;5035740;28;20056;-67
2023/12/12 09:18:09;;;;;;;7.35;4.63;;;;;;;;;;5019368;28;20547;-69
2023/12/12 09:20:35;;;;;;;6.47;4.22;;;;;;;;;;5021309;28;20050;-70
2023/12/12 09:23:00;;;;;;;6.60;4.55;;;;;;;;;;5026526;28;20045;-70
2023/12/12 09:25:26;;;;;;;7.18;4.45;;;;;;;;;;5020068;28;20041;-69
2023/12/12 09:27:52;;;;;;;5.95;4.15;;;;;;;;;;5020375;28;20088;-69
2023/12/12 09:30:17;;;;;;;6.45;3.80;;;;;;;;;;5019792;28;20122;-69
2023/12/12 09:32:43;;;;;;;6.80;3.90;;;;;;;;;;5019415;28;20107;-67
2023/12/12 09:35:09;;;;;;;5.45;3.75;;;;;;;;;;5019298;28;20068;-67
2023/12/12 09:37:35;;;;;;;6.43;3.88;;;;;;;;;;5033715;28;20658;-69
2023/12/12 09:40:03;;;;;;;5.63;3.85;;;;;;;;;;5019458;28;20049;-67
2023/12/12 09:42:32;;;;;;;5.18;3.83;;;;;;;;;;5018390;28;20491;-69
2023/12/12 09:44:59;;;;;;;5.93;3.53;;;;;;;;;;5040964;28;20044;-69
2023/12/12 09:47:29;;;;;;;4.75;3.90;;;;;;;;;;5057641;28;20139;-69
2023/12/12 09:49:55;;;;;;;6.22;4.20;;;;;;;;;;5057989;28;20049;-69
2023/12/12 09:52:34;;;;;;;8.52;4.00;;;;;;;;;;5056786;28;20066;-70
2023/12/12 09:55:00;;;;;;;5.40;4.00;;;;;;;;;;5056977;28;20068;-69
2023/12/12 09:57:28;;;;;;;5.07;3.17;;;;;;;;;;5029554;28;20115;-69
2023/12/12 09:59:54;;;;;;;6.80;3.60;;;;;;;;;;5039122;28;20127;-69
2023/12/12 10:02:26;;;;;;;4.30;3.60;;;;;;;;;;5046821;28;20047;-70
2023/12/12 10:04:52;;;;;;;5.40;4.38;;;;;;;;;;5046040;28;20499;-70
2023/12/12 10:07:18;;;;;;;6.00;4.30;;;;;;;;;;5054668;28;20052;-70
2023/12/12 10:09:44;;;;;;;9.25;4.50;;;;;;;;;;5050785;28;20044;-69
2023/12/12 10:12:09;;;;;;;6.00;4.35;;;;;;;;;;5050541;28;20049;-69
2023/12/12 10:14:36;;;;;;;6.05;4.15;;;;;;;;;;5047530;28;20131;-69
2023/12/12 10:17:05;;;;;;;5.82;3.88;;;;;;;;;;5049446;28;20048;-69
2023/12/12 10:19:31;;;;;;;5.18;3.55;;;;;;;;;;5047032;28;20052;-70
2023/12/12 10:22:09;;;;;;;5.38;3.58;;;;;;;;;;5041970;28;20056;-69
2023/12/12 10:24:36;;;;;;;7.30;3.45;;;;;;;;;;5051758;28;21034;-70
2023/12/12 10:27:03;;;;;;;8.10;3.75;;;;;;;;;;5050088;28;20057;-69
2023/12/12 10:29:30;;;;;;;4.38;3.42;;;;;;;;;;5047087;28;20114;-69
2023/12/12 10:31:58;;;;;;;4.20;3.45;;;;;;;;;;5050042;28;20048;-69
2023/12/12 10:34:27;;;;;;;6.40;3.92;;;;;;;;;;5050186;28;20488;-69
2023/12/12 10:36:54;;;;;;;5.20;3.60;;;;;;;;;;5046034;28;20045;-69
2023/12/12 10:39:20;;;;;;;5.70;4.18;;;;;;;;;;5050842;28;20152;-69
2023/12/12 10:41:55;;;;;;;5.75;3.65;;;;;;;;;;5042670;28;20143;-69
2023/12/12 10:44:21;;;;;;;5.88;4.10;;;;;;;;;;5054775;28;20069;-69
2023/12/12 10:46:51;;;;;;;6.88;3.92;;;;;;;;;;5043888;28;20052;-70
2023/12/12 10:49:21;;;;;;;4.78;3.78;;;;;;;;;;5049438;28;20103;-70
2023/12/12 10:51:47;;;;;;;5.40;3.75;;;;;;;;;;5037170;28;20052;-70
2023/12/12 10:54:16;;;;;;;4.78;3.75;;;;;;;;;;5048438;28;20040;-69
2023/12/12 10:56:46;;;;;;;5.13;3.17;;;;;;;;;;5049124;28;20052;-69
2023/12/12 10:59:16;;;;;;;4.70;3.50;;;;;;;;;;5048278;28;20044;-66
2023/12/12 11:01:46;;;;;;;5.20;3.75;;;;;;;;;;5051474;28;20127;-66
2023/12/12 11:04:13;;;;;;;5.32;3.35;;;;;;;;;;5047422;28;20041;-69
2023/12/12 11:06:42;;;;;;;5.15;3.08;;;;;;;;;;5047341;28;20049;-70
2023/12/12 11:09:08;;;;;;;3.60;2.78;;;;;;;;;;5041593;28;20094;-69
2023/12/12 11:11:34;;;;;;;3.00;2.70;;;;;;;;;;5041401;28;20187;-69
2023/12/12 11:14:01;;;;;;;4.00;2.92;;;;;;;;;;5041951;28;20060;-69
2023/12/12 11:16:27;;;;;;;6.38;2.67;;;;;;;;;;5048307;28;20075;-70
2023/12/12 11:18:55;;;;;;;2.63;2.42;;;;;;;;;;5046852;28;20045;-69
2023/12/12 11:21:49;;;;;;;4.22;2.80;;;;;;;;;;5036613;28;20776;-69
2023/12/12 11:24:16;;;;;;;3.67;2.88;;;;;;;;;;5037530;28;20564;-69
2023/12/12 11:26:43;;;;;;;4.15;2.85;;;;;;;;;;5037288;28;20128;-71
2023/12/12 11:29:15;;;;;;;3.30;2.53;;;;;;;;;;5037236;28;20075;-69
2023/12/12 11:32:00;;;;;;;2.88;2.50;;;;;;;;;;5036287;28;20047;-69
2023/12/12 11:34:35;;;;;;;3.80;2.58;;;;;;;;;;5036601;28;20044;-69
2023/12/12 11:37:00;;;;;;;4.45;2.65;;;;;;;;;;5041271;28;20138;-70
2023/12/12 11:40:01;;;;;;;5.45;2.65;;;;;;;;;;5053572;28;20139;-69
2023/12/12 11:42:26;;;;;;;4.45;2.83;;;;;;;;;;5038620;28;20045;-70
2023/12/12 11:44:54;;;;;;;4.15;2.83;;;;;;;;;;5055822;28;20052;-70
2023/12/12 11:47:21;;;;;;;3.35;2.83;;;;;;;;;;5040044;28;20120;-70
2023/12/12 11:49:47;;;;;;;4.15;3.47;;;;;;;;;;5041602;28;20040;-69
2023/12/12 11:52:41;;;;;;;5.15;3.10;;;;;;;;;;5044784;28;20095;-69
2023/12/12 11:55:11;;;;;;;8.13;3.92;;;;;;;;;;5059560;28;20056;-70
2023/12/12 11:57:37;;;;;;;5.03;3.70;;;;;;;;;;5059611;28;20040;-70
2023/12/12 12:00:03;;;;;;;4.60;3.90;;;;;;;;;;5060004;28;20071;-70
2023/12/12 12:02:30;;;;;;;6.03;3.97;;;;;;;;;;5059647;28;20511;-69
2023/12/12 12:04:56;;;;;;;6.90;4.00;;;;;;;;;;5058929;28;20044;-69
2023/12/12 12:07:22;;;;;;;5.47;3.83;;;;;;;;;;5060185;28;20603;-69
2023/12/12 12:09:49;;;;;;;9.27;4.07;;;;;;;;;;5059509;28;20113;-70
2023/12/12 12:12:16;;;;;;;5.20;3.72;;;;;;;;;;5059134;28;20072;-70
2023/12/12 12:14:41;;;;;;;6.68;4.30;;;;;;;;;;5058163;28;20140;-70
2023/12/12 12:17:07;;;;;;;9.75;4.18;;;;;;;;;;5059874;28;20052;-70
2023/12/12 12:19:37;;;;;;;5.18;3.97;;;;;;;;;;5059406;28;20820;-70
2023/12/12 12:22:11;;;;;;;6.05;4.13;;;;;;;;;;5059304;28;20067;-70
2023/12/12 12:24:44;;;;;;;6.65;4.47;;;;;;;;;;5057981;28;20075;-71
2023/12/12 12:27:10;;;;;;;4.70;3.28;;;;;;;;;;5058958;28;20051;-69
2023/12/12 12:29:36;;;;;;;4.20;2.92;;;;;;;;;;5059635;28;20044;-70
2023/12/12 12:32:17;;;;;;;4.43;3.33;;;;;;;;;;5058502;28;20500;-69
2023/12/12 12:34:43;;;;;;;5.85;3.97;;;;;;;;;;5057405;28;20044;-70
2023/12/12 12:37:31;;;;;;;6.22;4.30;;;;;;;;;;5056381;28;20074;-69
2023/12/12 12:39:56;;;;;;;4.47;3.28;;;;;;;;;;5058349;28;20032;-69
2023/12/12 12:42:33;;;;;;;4.95;3.63;;;;;;;;;;5058583;28;20050;-70
2023/12/12 12:44:59;;;;;;;5.28;3.50;;;;;;;;;;5057702;28;20641;-70
2023/12/12 12:47:25;;;;;;;5.10;3.95;;;;;;;;;;5030712;28;20049;-70
2023/12/12 12:49:53;;;;;;;6.05;4.20;;;;;;;;;;5030470;28;20565;-69
2023/12/12 12:52:18;;;;;;;4.65;4.10;;;;;;;;;;5038002;28;20441;-69
2023/12/12 12:54:44;;;;;;;6.50;4.40;;;;;;;;;;5038063;28;20531;-70
2023/12/12 12:57:12;;;;;;;7.57;4.28;;;;;;;;;;5040003;28;20076;-69
2023/12/12 12:59:38;;;;;;;5.55;3.88;;;;;;;;;;5038353;28;20050;-69
2023/12/12 13:02:03;;;;;;;2.95;2.65;;;;;;;;;;5043108;28;20036;-69
2023/12/12 13:04:29;;;;;;;7.47;4.40;;;;;;;;;;5048064;28;20068;-69
2023/12/12 13:06:54;;;;;;;5.57;4.60;;;;;;;;;;5043918;28;20048;-69
2023/12/12 13:09:19;;;;;;;6.07;4.03;;;;;;;;;;5044295;28;20079;-69
2023/12/12 13:11:45;;;;;;;8.55;4.75;;;;;;;;;;5037189;28;20047;-69
2023/12/12 13:14:10;;;;;;;6.68;4.68;;;;;;;;;;5037037;28;20493;-69
2023/12/12 13:16:35;;;;;;;9.88;5.20;;;;;;;;;;5039654;28;20045;-69
2023/12/12 13:19:01;;;;;;;7.95;4.55;;;;;;;;;;5038524;28;20128;-69
2023/12/12 13:21:28;;;;;;;11.30;4.25;;;;;;;;;;5031393;28;20052;-69
2023/12/12 13:23:54;;;;;;;9.93;4.65;;;;;;;;;;5018009;28;20079;-69
2023/12/12 13:26:22;;;;;;;6.03;4.65;;;;;;;;;;5031589;28;20523;-69
2023/12/12 13:28:50;;;;;;;5.97;3.85;;;;;;;;;;5043760;28;20132;-70
2023/12/12 13:31:16;;;;;;;6.25;3.70;;;;;;;;;;5042129;28;20063;-70
2023/12/12 13:33:42;;;;;;;5.75;4.20;;;;;;;;;;5052992;28;20457;-69
2023/12/12 13:36:08;;;;;;;4.78;4.07;;;;;;;;;;5046753;28;20534;-69
2023/12/12 13:38:34;;;;;;;3.25;2.88;;;;;;;;;;5050704;28;20206;-69
2023/12/12 13:40:59;;;;;;;3.20;2.85;;;;;;;;;;5050889;28;20519;-69
2023/12/12 13:43:25;;;;;;;5.82;4.63;;;;;;;;;;5047494;28;20048;-70
2023/12/12 13:45:50;;;;;;;2.40;2.20;;;;;;;;;;5051538;28;20129;-71
2023/12/12 13:48:17;;;;;;;3.35;2.88;;;;;;;;;;5054542;28;20037;-71
2023/12/12 13:50:43;;;;;;;7.97;4.70;;;;;;;;;;5046894;28;20045;-69
2023/12/12 13:53:10;;;;;;;3.15;2.60;;;;;;;;;;5054666;28;20185;-70
2023/12/12 13:55:36;;;;;;;6.78;3.75;;;;;;;;;;5038958;28;20086;-69
2023/12/12 13:58:01;;;;;;;5.07;3.50;;;;;;;;;;5043505;28;20502;-70
2023/12/12 14:00:27;;;;;;;6.32;4.60;;;;;;;;;;5045789;28;20125;-69
2023/12/12 14:02:53;;;;;;;6.15;4.68;;;;;;;;;;5046782;28;20052;-70
2023/12/12 14:05:18;;;;;;;4.40;2.95;;;;;;;;;;5046784;28;20047;-69
2023/12/12 14:07:43;;;;;;;5.10;3.47;;;;;;;;;;5046998;28;20128;-69
2023/12/12 14:10:10;;;;;;;3.60;3.28;;;;;;;;;;5048941;28;20051;-69
2023/12/12 14:12:35;;;;;;;4.93;4.13;;;;;;;;;;5023964;28;20558;-70
2023/12/12 14:15:02;;;;;;;3.92;3.28;;;;;;;;;;5056733;28;20056;-69
2023/12/12 14:17:27;;;;;;;6.93;4.68;;;;;;;;;;5056302;28;20048;-70
2023/12/12 14:19:53;;;;;;;7.03;4.25;;;;;;;;;;5057493;28;20051;-69
2023/12/12 14:22:18;;;;;;;6.13;3.80;;;;;;;;;;5057439;28;20132;-69
2023/12/12 14:24:43;;;;;;;6.65;4.70;;;;;;;;;;5056490;28;20044;-69
2023/12/12 14:27:09;;;;;;;8.45;4.45;;;;;;;;;;5056464;28;20123;-69
2023/12/12 14:29:34;;;;;;;6.10;4.05;;;;;;;;;;5057131;28;20047;-70
2023/12/12 14:32:00;;;;;;;8.98;6.30;;;;;;;;;;5056909;28;20028;-69
2023/12/12 14:34:25;;;;;;;7.05;5.55;;;;;;;;;;5057394;28;20029;-70
2023/12/12 14:36:51;;;;;;;9.10;4.75;;;;;;;;;;5056143;28;20040;-70
2023/12/12 14:39:17;;;;;;;4.30;2.60;;;;;;;;;;5057149;28;20449;-69